Estación Meteorológica Peña el Pijo (Robertgarden) [ 05/25/18 12:52:42 CEST ]

Fecha Hora Presion(HPa) Temp (°C) Humedad % Rocio (°C) Viento ( m/s) Direccion Lluvia 1Hora(mm) Lluvia 24H(mm) LLuvia Total(mm)
2018-Mar-01 01:01:43 986.700 9.9 63 3.2       1.55 87.54
2018-Mar-01 02:05:11 986.600 9.8 61 2.6       1.55 87.54
2018-Mar-01 03:01:46 986.700 8.8 62 1.9       1.55 87.54
2018-Mar-01 04:01:46 985.900 8.8 64 2.3       1.55 87.54
2018-Mar-01 05:01:43 985.000 8.9 62 2.0       1.55 87.54
2018-Mar-01 06:01:42 984.900 8.9 67 3.1       1.55 87.54
2018-Mar-01 07:01:43 984.300 9.4 66 3.3       1.55 87.54
2018-Mar-01 08:01:55 984.500 8.7 69 3.3       1.55 87.54
2018-Mar-01 09:01:47 983.600 9.3 69 3.9       1.55 87.54
2018-Mar-01 10:01:43 983.200 9.6 70 4.4       1.55 87.54
2018-Mar-01 11:01:34 982.400 12.5 63 5.6       1.55 87.54
2018-Mar-01 12:01:48 982.700 9.2 70 4.0       1.55 87.54
2018-Mar-01 13:01:32 981.300 9.6 75 5.3 4.6 NW 0.51 2.07 88.06
2018-Mar-01 14:01:37 980.600 13.8 60 6.4 1.0 NW   2.07 88.06
2018-Mar-01 15:01:44 980.600 10.8 69 5.4 3.1 NW 0.51 2.59 88.57
2018-Mar-01 16:01:44 980.300 13.4 62 6.2 1.3 WNW   2.59 88.57
2018-Mar-01 17:01:25 981.600 9.1 73 4.5     1.55 4.14 90.13
2018-Mar-01 18:01:38 982.400 9.2 73 4.6 2.2 NNW   4.14 90.13
2018-Mar-01 19:01:37 983.700 9.0 63 2.3       3.62 90.13
2018-Mar-01 20:02:20 985.400 7.3 73 2.8       2.59 90.13
2018-Mar-01 21:01:34 987.200 5.6 78 2.0     1.03 3.62 91.16
2018-Mar-01 22:01:52 988.400 5.1 81 2.1 2.8 NNW 1.03 4.66 92.20
2018-Mar-01 23:01:37 989.100 5.0 82 2.1       4.66 92.20

Temperatura Máxima:13°    Temperatura Mínima:
Presión Máxima:989.100 Hpa    Presión Mínima:980.300 Hpa


Volver